• Join FlightAware (Why Join?)
  • Login
  • US Flag 
09:19AM EDT


 

Airport Tracker/Info


-or-


 

Live Flight TrackerFlight Track Log ✈ AAL1326 ✈ 30-Apr-2013 ✈ KMCI - KORD

Flight Track Log - Related Links

Times and Time Zones

All times are in EDT time to prevent confusion due to time zone crossing. See the AAL1326 flight status page for this flight to view local times or setup timezone preferences in your user account.

Time Position Orientation Groundspeed Altitude Reporting Facility
EDT Latitude Longitude Course Direction KTS MPH feet Rate Location/Type
04:42PM 39.4765 -94.4828 41° Northeast  Level FlightAware Approximate
04:42PM 39.2080 -94.6440 41° Northeast 302 348 6,800  Level FlightAware
04:42PM 39.2280 -94.6290 30° Northeast 313 360 7,600 3,420 Climbing FlightAware
04:43PM 39.2590 -94.6110 24° Northeast 311 358 9,100 3,480 Climbing FlightAware
04:43PM 39.3210 -94.5770 23° Northeast 317 365 11,700 3,060 Climbing FlightAware
04:44PM 39.3770 -94.5440 24° Northeast 346 398 13,500 2,880 Climbing FlightAware
04:45PM 39.4450 -94.5050 24° Northeast 371 427 15,800 3,240 Climbing FlightAware
04:45PM 39.5080 -94.4670 25° Northeast 381 438 18,100 3,420 Climbing FlightAware
04:46PM 39.5700 -94.4280 26° Northeast 384 442 20,400 3,060 Climbing FlightAware
04:47PM 39.6430 -94.3760 29° Northeast 399 459 22,500 2,460 Climbing FlightAware
04:47PM 39.6840 -94.2940 57° Northeast 418 481 23,900 2,160 Climbing FlightAware
04:48PM 39.7140 -94.1890 70° East 419 482 25,600 2,460 Climbing FlightAware
04:49PM 39.7430 -94.1010 67° East 417 480 27,400 2,280 Climbing FlightAware
04:50PM 39.7750 -94.0050 67° East 430 495 28,700 2,280 Climbing FlightAware
04:50PM 39.8090 -93.8930 68° East 424 488 30,700 1,620 Climbing FlightAware
04:51PM 39.8370 -93.8000 69° East 417 480 31,000 180 Climbing FlightAware
04:52PM 39.8690 -93.6980 68° East 417 480 31,000  Level FlightAware
04:52PM 39.8980 -93.6060 68° East 419 482 31,000  Level FlightAware
04:53PM 39.9290 -93.5060 68° East 455 524 31,000  Level FlightAware
04:54PM 39.9660 -93.3860 68° East 471 542 31,000  Level FlightAware
04:54PM 39.9980 -93.2810 68° East 472 543 31,000  Level FlightAware
04:55PM 40.0340 -93.1650 68° East 473 544 31,000  Level FlightAware
04:56PM 40.0650 -93.0600 69° East 474 545 31,000  Level FlightAware
04:57PM 40.0980 -92.9540 68° East 475 547 31,000  Level FlightAware
04:57PM 40.1340 -92.8320 69° East 474 545 31,000  Level FlightAware
04:58PM 40.1660 -92.7250 69° East 472 543 31,000  Level FlightAware
04:59PM 40.2030 -92.6030 68° East 471 542 31,000  Level FlightAware
04:59PM 40.2340 -92.4980 69° East 470 541 31,000  Level FlightAware
05:00PM 40.2690 -92.3800 69° East 470 541 31,000  Level FlightAware
05:01PM 40.3000 -92.2780 68° East 470 541 31,000  Level FlightAware
05:01PM 40.3310 -92.1720 69° East 470 541 31,000  Level FlightAware
05:02PM 40.3650 -92.0540 69° East 470 541 31,000  Level FlightAware
05:03PM 40.3910 -91.9660 69° East 470 541 31,000  Level FlightAware
05:03PM 40.4240 -91.8520 69° East 469 540 31,000  Level FlightAware
05:04PM 40.4620 -91.7230 69° East 469 540 31,000  Level FlightAware
05:05PM 40.4940 -91.6100 70° East 469 540 31,000  Level FlightAware
05:06PM 40.5220 -91.5140 69° East 470 541 31,000  Level FlightAware
05:06PM 40.5590 -91.3870 69° East 471 542 31,000  Level FlightAware
05:07PM 40.5930 -91.2900 65° Northeast 471 542 31,000  Level FlightAware
05:08PM 40.6290 -91.1830 66° East 472 543 31,000  Level FlightAware
05:08PM 40.6720 -91.0580 66° East 472 543 31,000  Level FlightAware
05:09PM 40.7160 -90.9320 65° Northeast 473 544 31,000  Level FlightAware
05:10PM 40.7600 -90.7990 66° East 472 543 31,000  Level FlightAware
05:11PM 40.7960 -90.6910 66° East 472 543 31,000  Level FlightAware
05:12PM 40.8350 -90.5770 66° East 471 542 31,000  Level FlightAware
05:12PM 40.8710 -90.4670 67° East 471 542 31,000  Level FlightAware
05:13PM 40.9120 -90.3460 66° East 471 542 31,000 -480 Level FlightAware
05:14PM 40.9450 -90.2460 66° East 469 540 30,400 -1,440 Descending FlightAware
05:14PM 40.9810 -90.1360 67° East 474 545 29,100 -1,800 Descending FlightAware
05:15PM 41.0190 -90.0200 66° East 472 543 27,900 -1,740 Descending FlightAware
05:16PM 41.0520 -89.9190 67° East 465 535 26,700 -1,920 Descending FlightAware
05:16PM 41.0920 -89.7960 67° East 457 526 25,200 -1,800 Descending FlightAware
05:17PM 41.1130 -89.7320 66° East 449 517 24,500 -1,800 Descending FlightAware
05:18PM 41.1560 -89.5980 67° East 443 510 22,800 -2,040 Descending FlightAware
05:19PM 41.1990 -89.4900 62° Northeast 425 489 21,300 -2,100 Descending FlightAware
05:19PM 41.2360 -89.3990 62° Northeast 415 478 19,900 -1,980 Descending FlightAware
05:20PM 41.2770 -89.2980 62° Northeast 410 472 18,500 -1,860 Descending FlightAware
05:21PM 41.3130 -89.2080 62° Northeast 411 473 17,300 -1,800 Descending FlightAware
05:21PM 41.3490 -89.1180 62° Northeast 410 472 16,100 -1,800 Descending FlightAware
05:22PM 41.3870 -89.0220 62° Northeast 400 460 14,800 -1,860 Descending FlightAware
05:23PM 41.4230 -88.9320 62° Northeast 391 450 13,500 -1,860 Descending FlightAware
05:23PM 41.4610 -88.8370 62° Northeast 396 456 12,200 -1,740 Descending FlightAware
05:24PM 41.4950 -88.7520 62° Northeast 393 452 11,100 -780 Descending FlightAware
05:25PM 41.5320 -88.6590 62° Northeast 388 447 11,100  Level FlightAware
05:25PM 41.5550 -88.6090 58° Northeast 393 452 11,100  Level FlightAware
05:26PM 41.6190 -88.5400 39° Northeast 390 449 11,100 -180 Level FlightAware
05:27PM 41.6710 -88.4720 44° Northeast 392 451 10,900 -480 Descending FlightAware
05:27PM 41.7200 -88.4020 47° Northeast 389 448 10,500 -600 Descending FlightAware
05:28PM 41.7750 -88.3210 48° Northeast 387 445 10,100 -300 Descending FlightAware
05:29PM 41.8240 -88.2510 47° Northeast 385 443 10,100  Level FlightAware
05:30PM 41.8780 -88.1730 47° Northeast 381 438 10,100 -180 Level FlightAware
05:30PM 41.9120 -88.1360 39° Northeast 351 404 9,900 -660 Descending FlightAware
05:30PM 41.9480 -88.0980 38° Northeast 331 381 9,500 -1,020 Descending FlightAware
05:31PM 41.9740 -88.0660 42° Northeast 326 375 9,000 -1,200 Descending FlightAware
05:31PM 42.0070 -88.0240 43° Northeast 318 366 8,400 -1,020 Descending FlightAware
05:32PM 42.0400 -87.9840 42° Northeast 314 361 8,000 -900 Descending FlightAware
05:32PM 42.0680 -87.9490 43° Northeast 313 360 7,600 -960 Descending FlightAware
05:33PM 42.0930 -87.9180 43° Northeast 310 357 7,200 -600 Descending FlightAware
05:33PM 42.1230 -87.8890 36° Northeast 295 339 7,100 -120 Descending FlightAware
05:34PM 42.1560 -87.8580 35° Northeast 273 314 7,100 -300 Level FlightAware
05:34PM 42.1830 -87.8270 40° Northeast 265 305 6,800 -1,440 Descending FlightAware
05:35PM 42.2090 -87.7940 43° Northeast 269 310 5,800 -1,740 Descending FlightAware
05:35PM 42.2160 -87.7730 66° East 259 298 5,500 -1,080 Descending FlightAware
05:35PM 42.2090 -87.7370 105° East 218 251 5,100 -600 Descending FlightAware
05:36PM 42.2000 -87.7230 131° Southeast 192 221 5,100  Level FlightAware
05:36PM 42.1890 -87.7200 169° South 172 198 5,100 -720 Level FlightAware
05:36PM 42.1680 -87.7270 194° South 161 185 4,600 -1,140 Descending FlightAware
05:37PM 42.1500 -87.7340 196° South 155 178 4,100 -1,200 Descending FlightAware
05:37PM 42.1300 -87.7480 207° Southwest 153 176 3,500 -1,140 Descending FlightAware
05:38PM 42.1160 -87.7640 220° Southwest 153 176 3,100 -480 Descending FlightAware
05:38PM 42.1000 -87.7830 221° Southwest 153 176 3,100  Level FlightAware
05:38PM 42.0930 -87.7910 220° Southwest 153 176 3,100 -480 Level FlightAware
05:39PM 42.0790 -87.8070 220° Southwest 155 178 2,800 -900 Descending FlightAware
05:39PM 42.0620 -87.8260 220° Southwest 153 176 2,300 -900 Descending FlightAware
05:40PM 42.0480 -87.8400 217° Southwest 151 174 2,000 -780 Descending FlightAware
05:40PM 42.0340 -87.8560 220° Southwest 124 143 1,600 -660 Descending FlightAware
05:41PM 42.0230 -87.8680 219° Southwest 120 138 1,400 -600 Descending FlightAware
05:41PM 42.0030 -87.8900 219° Southwest 127 146 900 -600 Descending FlightAware
05:42PM 41.9960 -87.8980 220° Southwest 123 142 800 -420 Descending FlightAware